createdAt,value
2022-12-05T00:02:21.546Z,30.50
2022-12-05T00:04:51.989Z,31.15
2022-12-05T00:07:23.780Z,30.30
2022-12-05T00:09:55.800Z,29.40
2022-12-05T00:12:26.944Z,27.13
2022-12-05T00:14:57.487Z,30.02
2022-12-05T00:17:29.119Z,30.23
2022-12-05T00:20:00.263Z,29.85
2022-12-05T00:22:31.024Z,27.73
2022-12-05T00:25:01.416Z,27.15
2022-12-05T00:27:31.967Z,28.25
2022-12-05T00:30:02.936Z,30.15
2022-12-05T00:32:33.461Z,28.20
2022-12-05T00:35:03.911Z,28.17
2022-12-05T00:37:34.347Z,28.85
2022-12-05T00:40:06.762Z,26.33
2022-12-05T00:42:37.217Z,28.87
2022-12-05T00:45:08.132Z,26.48
2022-12-05T00:47:39.893Z,27.35
2022-12-05T00:50:11.599Z,27.90
2022-12-05T00:52:42.163Z,26.93
2022-12-05T00:55:12.629Z,29.12
2022-12-05T00:57:43.161Z,27.52
2022-12-05T01:00:14.085Z,29.82
2022-12-05T01:02:45.817Z,27.05
2022-12-05T01:05:17.472Z,30.35
2022-12-05T01:07:48.045Z,29.67
2022-12-05T01:10:18.524Z,28.60
2022-12-05T01:12:49.095Z,26.23
2022-12-05T01:15:21.148Z,25.15
2022-12-05T01:17:51.726Z,26.25
2022-12-05T01:20:22.280Z,25.02
2022-12-05T01:22:53.701Z,24.52
2022-12-05T01:25:25.391Z,26.75
2022-12-05T01:27:55.879Z,28.20
2022-12-05T01:30:27.048Z,26.75
2022-12-05T01:32:58.702Z,25.30
2022-12-05T01:35:30.660Z,26.02
2022-12-05T01:38:01.207Z,27.27
2022-12-05T01:40:31.973Z,24.98
2022-12-05T01:43:02.908Z,23.73
2022-12-05T01:45:40.920Z,24.50
2022-12-05T01:48:15.550Z,25.20
2022-12-05T01:50:46.604Z,24.60
2022-12-05T01:53:18.783Z,25.50
2022-12-05T01:55:52.255Z,23.92
2022-12-05T01:58:25.088Z,23.85
2022-12-05T02:00:55.615Z,24.82
2022-12-05T02:03:26.167Z,26.05
2022-12-05T02:05:59.719Z,27.15
2022-12-05T02:08:30.539Z,29.52
2022-12-05T02:11:01.164Z,33.98
2022-12-05T02:14:02.515Z,33.15
2022-12-05T02:16:41.830Z,28.23
2022-12-05T02:19:31.504Z,27.67
2022-12-05T02:22:26.161Z,26.87
2022-12-05T02:25:02.287Z,28.12
2022-12-05T02:28:11.997Z,33.35
2022-12-05T02:30:48.192Z,33.05
2022-12-05T02:33:24.668Z,37.28
2022-12-05T02:36:08.595Z,39.70
2022-12-05T02:39:08.499Z,36.25
2022-12-05T02:41:47.945Z,29.77
2022-12-05T02:44:36.714Z,31.15
2022-12-05T02:47:09.464Z,36.42
2022-12-05T02:49:42.540Z,34.78
2022-12-05T02:52:16.983Z,29.90
2022-12-05T02:54:50.430Z,27.22
2022-12-05T02:57:22.722Z,27.50
2022-12-05T02:59:54.278Z,26.25
2022-12-05T03:02:35.021Z,24.47
2022-12-05T03:05:26.539Z,29.72
2022-12-05T03:08:00.335Z,27.70
2022-12-05T03:10:34.008Z,32.40
2022-12-05T03:13:10.679Z,32.78
2022-12-05T03:15:44.169Z,33.55
2022-12-05T03:18:24.363Z,28.50
2022-12-05T03:21:19.122Z,28.55
2022-12-05T03:23:52.605Z,27.42
2022-12-05T03:26:35.043Z,26.68
2022-12-05T03:29:11.144Z,27.30
2022-12-05T03:31:44.532Z,25.00
2022-12-05T03:34:18.009Z,25.30
2022-12-05T03:36:53.922Z,23.05
2022-12-05T03:39:28.470Z,26.10
2022-12-05T03:42:10.930Z,25.65
2022-12-05T03:44:57.694Z,25.80
2022-12-05T03:47:33.957Z,27.80
2022-12-05T03:50:07.374Z,26.12
2022-12-05T03:53:18.001Z,27.07
2022-12-05T03:55:19.108Z,28.75
2022-12-05T03:57:55.491Z,29.45
2022-12-05T04:00:27.950Z,29.52
2022-12-05T04:03:07.669Z,28.98
2022-12-05T04:05:41.344Z,31.15
2022-12-05T04:08:29.647Z,40.55
2022-12-05T04:11:05.832Z,32.30
2022-12-05T04:13:55.854Z,30.02
2022-12-05T04:16:47.132Z,26.60
2022-12-05T04:19:20.543Z,25.23
2022-12-05T04:21:53.964Z,26.70
2022-12-05T04:24:48.142Z,27.60
2022-12-05T04:27:25.963Z,25.45
2022-12-05T04:30:17.522Z,26.95
2022-12-05T04:33:07.981Z,25.72
2022-12-05T04:35:47.273Z,26.23
2022-12-05T04:38:20.701Z,26.70
2022-12-05T04:40:54.133Z,23.55
2022-12-05T04:43:28.727Z,23.10
2022-12-05T04:46:01.731Z,21.77
2022-12-05T04:48:34.056Z,24.30
2022-12-05T04:51:05.893Z,25.10
2022-12-05T04:53:37.375Z,24.50
2022-12-05T04:56:10.820Z,24.35
2022-12-05T04:58:41.398Z,23.92
2022-12-05T05:01:16.206Z,25.50
2022-12-05T05:03:55.614Z,25.60
2022-12-05T05:06:27.605Z,26.33
2022-12-05T05:08:59.262Z,24.92
2022-12-05T05:11:32.567Z,26.17
2022-12-05T05:14:03.843Z,26.60
2022-12-05T05:16:37.434Z,24.75
2022-12-05T05:19:09.622Z,25.82
2022-12-05T05:21:42.514Z,24.40
2022-12-05T05:24:14.040Z,26.82
2022-12-05T05:26:50.040Z,24.57
2022-12-05T05:29:19.547Z,24.65
2022-12-05T05:31:50.030Z,25.62
2022-12-05T05:34:21.649Z,24.27
2022-12-05T05:36:54.249Z,25.35
2022-12-05T05:39:27.568Z,24.18
2022-12-05T05:41:59.087Z,25.10
2022-12-05T05:44:29.482Z,24.43
2022-12-05T05:47:01.220Z,24.63
2022-12-05T05:49:32.844Z,26.73
2022-12-05T05:52:04.924Z,25.97
2022-12-05T05:54:35.364Z,27.98
2022-12-05T05:57:05.853Z,27.73
2022-12-05T05:59:37.478Z,26.97
2022-12-05T06:02:08.013Z,26.77
2022-12-05T06:04:38.861Z,28.20
2022-12-05T06:07:09.380Z,30.85
2022-12-05T06:09:39.862Z,27.98
2022-12-05T06:12:10.287Z,27.48
2022-12-05T06:14:40.726Z,26.40
2022-12-05T06:17:12.422Z,23.67
2022-12-05T06:19:42.877Z,28.90
2022-12-05T06:22:14.603Z,30.80
2022-12-05T06:24:45.170Z,31.85
2022-12-05T06:27:16.891Z,28.98
2022-12-05T06:29:47.279Z,31.75
2022-12-05T06:32:17.827Z,34.63
2022-12-05T06:34:48.302Z,31.00
2022-12-05T06:37:18.725Z,28.42
2022-12-05T06:39:49.209Z,30.65
2022-12-05T06:42:19.708Z,32.55
2022-12-05T06:44:50.169Z,36.45
2022-12-05T06:47:20.707Z,31.85
2022-12-05T06:49:52.249Z,31.70
2022-12-05T06:52:22.743Z,31.50
2022-12-05T06:54:53.313Z,29.40
2022-12-05T06:57:23.871Z,30.27
2022-12-05T06:59:56.041Z,32.63
2022-12-05T07:02:26.610Z,31.25
2022-12-05T07:04:57.096Z,32.83
2022-12-05T07:07:27.453Z,32.40
2022-12-05T07:09:59.278Z,32.10
2022-12-05T07:12:29.877Z,34.23
2022-12-05T07:15:00.578Z,32.38
2022-12-05T07:17:32.205Z,29.52
2022-12-05T07:20:02.688Z,31.35
2022-12-05T07:22:33.197Z,30.15
2022-12-05T07:25:03.969Z,30.37
2022-12-05T07:27:35.058Z,28.60
2022-12-05T07:30:08.174Z,27.70
2022-12-05T07:32:39.713Z,26.87
2022-12-05T07:35:10.331Z,30.45
2022-12-05T07:37:41.981Z,27.00
2022-12-05T07:40:14.255Z,28.57
2022-12-05T07:42:44.791Z,28.00
2022-12-05T07:45:15.276Z,28.95
2022-12-05T07:47:45.880Z,29.37
2022-12-05T07:50:16.771Z,31.00
2022-12-05T07:52:48.545Z,29.42
2022-12-05T07:55:19.102Z,28.73
2022-12-05T07:57:49.925Z,27.30
2022-12-05T08:00:21.660Z,31.85
2022-12-05T08:02:53.257Z,29.30
2022-12-05T08:05:24.879Z,32.23
2022-12-05T08:07:55.509Z,29.35
2022-12-05T08:10:27.857Z,26.60
2022-12-05T08:12:58.368Z,30.23
2022-12-05T08:15:28.855Z,29.87
2022-12-05T08:18:00.525Z,29.25
2022-12-05T08:20:31.064Z,31.17
2022-12-05T08:23:01.577Z,25.97
2022-12-05T08:25:32.146Z,28.92
2022-12-05T08:28:02.526Z,29.18
2022-12-05T08:30:35.171Z,28.10
2022-12-05T08:33:05.805Z,30.37
2022-12-05T08:35:38.390Z,29.48
2022-12-05T08:38:10.135Z,28.65
2022-12-05T08:40:40.582Z,28.52
2022-12-05T08:43:11.014Z,29.63
2022-12-05T08:45:41.665Z,27.80
2022-12-05T08:48:12.092Z,35.08
2022-12-05T08:50:42.500Z,30.82
2022-12-05T08:53:13.370Z,38.25
2022-12-05T08:55:47.133Z,35.15
2022-12-05T08:58:18.308Z,31.82
2022-12-05T09:00:48.807Z,32.70
2022-12-05T09:03:19.249Z,33.38
2022-12-05T09:05:54.708Z,30.20
2022-12-05T09:08:22.419Z,30.82
2022-12-05T09:10:52.854Z,29.82
2022-12-05T09:13:23.284Z,30.70
2022-12-05T09:15:55.104Z,33.30
2022-12-05T09:18:25.636Z,31.45
2022-12-05T09:20:56.165Z,35.20
2022-12-05T09:23:26.588Z,28.55
2022-12-05T09:25:58.251Z,30.10
2022-12-05T09:28:28.777Z,31.42
2022-12-05T09:31:02.027Z,33.78
2022-12-05T09:33:34.645Z,34.85
2022-12-05T09:36:07.899Z,35.17
2022-12-05T09:38:38.558Z,51.37
2022-12-05T09:41:48.119Z,38.40
2022-12-05T09:44:24.680Z,35.75
2022-12-05T09:47:01.389Z,32.53
2022-12-05T09:49:34.272Z,31.02
2022-12-05T09:52:05.993Z,31.62
2022-12-05T09:54:36.507Z,30.12
2022-12-05T09:57:09.715Z,32.10
2022-12-05T09:59:40.247Z,30.23
2022-12-05T10:02:28.397Z,32.80
2022-12-05T10:05:05.485Z,33.45
2022-12-05T10:07:54.524Z,34.65
2022-12-05T10:10:30.879Z,30.48
2022-12-05T10:13:26.250Z,27.55
2022-12-05T10:16:02.541Z,30.32
2022-12-05T10:18:44.918Z,30.68
2022-12-05T10:21:27.861Z,29.77
2022-12-05T10:24:01.325Z,30.55
2022-12-05T10:26:39.513Z,31.07
2022-12-05T10:29:20.128Z,30.15
2022-12-05T10:31:52.963Z,31.80
2022-12-05T10:34:34.952Z,29.50
2022-12-05T10:37:16.690Z,29.70
2022-12-05T10:39:48.693Z,31.77
2022-12-05T10:42:35.661Z,30.57
2022-12-05T10:47:37.850Z,33.15
2022-12-05T10:50:20.332Z,33.70
2022-12-05T10:52:51.338Z,34.33
2022-12-05T10:57:44.234Z,33.75
2022-12-05T11:00:18.114Z,34.98
2022-12-05T11:02:50.684Z,35.95
2022-12-05T11:05:29.519Z,37.05
2022-12-05T11:08:01.155Z,36.35
2022-12-05T11:10:38.105Z,37.35
2022-12-05T11:13:18.434Z,34.45
2022-12-05T11:15:55.371Z,36.42
2022-12-05T11:18:28.909Z,38.70
2022-12-05T11:21:14.495Z,37.03
2022-12-05T11:23:45.004Z,37.05
2022-12-05T11:26:22.621Z,38.90
2022-12-05T11:28:53.177Z,34.53
2022-12-05T11:31:29.367Z,37.53
2022-12-05T11:34:16.221Z,38.00
2022-12-05T11:39:17.863Z,34.78
2022-12-05T11:42:08.158Z,36.98
2022-12-05T11:44:54.575Z,33.10
2022-12-05T11:47:27.932Z,38.15
2022-12-05T11:50:04.477Z,38.08
2022-12-05T11:53:02.287Z,37.58
2022-12-05T11:55:43.604Z,34.38
2022-12-05T11:58:25.850Z,37.25
2022-12-05T12:01:19.016Z,36.60
2022-12-05T12:04:08.908Z,38.17
2022-12-05T12:06:49.246Z,38.48
2022-12-05T12:09:43.641Z,37.35
2022-12-05T12:12:19.772Z,35.23
2022-12-05T12:15:15.556Z,36.33
2022-12-05T12:20:51.998Z,35.70
2022-12-05T12:23:43.597Z,36.08
2022-12-05T12:26:25.747Z,37.15
2022-12-05T12:29:20.199Z,37.85
2022-12-05T12:32:05.141Z,40.58
2022-12-05T12:34:44.279Z,41.92
2022-12-05T12:37:36.178Z,35.17
2022-12-05T12:40:24.975Z,35.75
2022-12-05T12:43:04.170Z,35.68
2022-12-05T12:45:45.459Z,35.50
2022-12-05T12:48:27.747Z,35.33
2022-12-05T12:51:01.449Z,38.05
2022-12-05T12:53:57.802Z,38.38
2022-12-05T12:56:38.617Z,38.15
2022-12-05T12:59:21.036Z,39.23
2022-12-05T13:01:57.534Z,42.30
2022-12-05T13:04:36.756Z,38.83
2022-12-05T13:07:25.638Z,40.70
2022-12-05T13:09:59.146Z,40.63
2022-12-05T13:12:32.607Z,43.02
2022-12-05T13:15:09.215Z,47.10
2022-12-05T13:17:42.435Z,47.55
2022-12-05T13:20:19.150Z,46.95
2022-12-05T13:22:51.659Z,49.75
2022-12-05T13:25:24.874Z,51.53
2022-12-05T13:28:03.889Z,52.17
2022-12-05T13:30:38.026Z,50.10
2022-12-05T13:33:11.453Z,49.30
2022-12-05T13:35:59.855Z,48.98
2022-12-05T13:38:51.410Z,48.10
2022-12-05T13:41:40.109Z,45.10
2022-12-05T13:44:12.288Z,42.58
2022-12-05T13:46:44.490Z,42.60
2022-12-05T13:49:20.977Z,41.45
2022-12-05T13:51:52.146Z,40.58
2022-12-05T13:54:28.119Z,39.50
2022-12-05T13:57:03.168Z,43.80
2022-12-05T13:59:56.596Z,41.92
2022-12-05T14:02:57.409Z,41.08
2022-12-05T14:05:43.167Z,43.68
2022-12-05T14:08:37.908Z,42.33
2022-12-05T14:11:11.435Z,42.70
2022-12-05T14:13:44.113Z,42.60
2022-12-05T14:16:27.808Z,51.60
2022-12-05T14:19:16.234Z,42.38
2022-12-05T14:21:52.916Z,48.13
2022-12-05T14:24:38.132Z,44.40
2022-12-05T14:27:20.599Z,46.33
2022-12-05T14:30:03.023Z,43.35
2022-12-05T14:32:39.050Z,43.92
2022-12-05T14:35:15.667Z,45.25
2022-12-05T14:37:55.141Z,45.23
2022-12-05T14:40:37.773Z,44.30
2022-12-05T14:43:20.303Z,43.65
2022-12-05T14:46:07.262Z,45.73
2022-12-05T14:51:35.460Z,43.63
2022-12-05T14:54:10.750Z,40.00
2022-12-05T14:59:37.127Z,43.13
2022-12-05T15:02:08.194Z,42.65
2022-12-05T15:04:41.795Z,41.70
2022-12-05T15:07:15.470Z,43.00
2022-12-05T15:09:52.578Z,44.20
2022-12-05T15:12:29.175Z,43.28
2022-12-05T15:15:27.119Z,42.78
2022-12-05T15:18:00.607Z,48.58
2022-12-05T15:20:53.406Z,45.95
2022-12-05T15:23:46.224Z,47.40
2022-12-05T15:26:49.142Z,47.40
2022-12-05T15:29:25.211Z,47.67
2022-12-05T15:32:08.606Z,44.63
2022-12-05T15:34:45.788Z,44.50
2022-12-05T15:37:47.766Z,41.42
2022-12-05T15:40:24.735Z,43.95
2022-12-05T15:42:58.347Z,42.10
2022-12-05T15:45:32.679Z,38.60
2022-12-05T15:48:19.791Z,38.90
2022-12-05T15:50:51.558Z,42.15
2022-12-05T15:53:33.464Z,38.80
2022-12-05T15:56:16.987Z,39.03
2022-12-05T15:59:06.457Z,39.33
2022-12-05T16:01:43.794Z,44.95
2022-12-05T16:04:37.817Z,63.35
2022-12-05T16:07:14.023Z,62.83
2022-12-05T16:09:48.608Z,65.80
2022-12-05T16:12:32.943Z,63.92
2022-12-05T16:15:06.991Z,54.35
2022-12-05T16:17:53.748Z,57.62
2022-12-05T16:20:31.619Z,59.03
2022-12-05T16:23:09.395Z,56.50
2022-12-05T16:25:41.570Z,52.45
2022-12-05T16:28:21.111Z,49.18
2022-12-05T16:31:02.621Z,44.83
2022-12-05T16:33:41.930Z,43.08
2022-12-05T16:36:12.229Z,45.10
2022-12-05T16:38:48.140Z,47.80
2022-12-05T16:41:22.646Z,45.48
2022-12-05T16:43:59.567Z,50.40
2022-12-05T16:46:42.231Z,47.03
2022-12-05T16:49:37.816Z,57.90
2022-12-05T16:52:19.788Z,52.43
2022-12-05T16:54:51.825Z,50.70
2022-12-05T16:57:23.890Z,48.28
2022-12-05T17:00:00.717Z,52.03
2022-12-05T17:02:32.884Z,47.45
2022-12-05T17:05:12.986Z,46.37
2022-12-05T17:07:52.075Z,51.18
2022-12-05T17:10:26.537Z,54.65
2022-12-05T17:13:00.965Z,45.98
2022-12-05T17:15:34.806Z,53.85
2022-12-05T17:18:18.764Z,46.75
2022-12-05T17:20:55.476Z,47.25
2022-12-05T17:23:29.095Z,49.20
2022-12-05T17:26:07.199Z,49.65
2022-12-05T17:28:40.785Z,48.98
2022-12-05T17:31:17.903Z,47.95
2022-12-05T17:34:01.450Z,47.93
2022-12-05T17:36:37.590Z,52.45
2022-12-05T17:39:10.371Z,54.13
2022-12-05T17:41:46.242Z,53.28
2022-12-05T17:44:19.537Z,53.92
2022-12-05T17:46:52.534Z,50.90
2022-12-05T17:49:25.926Z,53.63
2022-12-05T17:52:21.340Z,55.50
2022-12-05T17:54:39.160Z,52.38
2022-12-05T17:57:14.909Z,52.88
2022-12-05T17:59:48.448Z,57.58
2022-12-05T18:02:23.340Z,63.70
2022-12-05T18:04:55.263Z,91.97
2022-12-05T18:07:30.229Z,63.25
2022-12-05T18:10:08.230Z,64.25
2022-12-05T18:12:38.771Z,58.75
2022-12-05T18:15:11.765Z,70.10
2022-12-05T18:17:44.064Z,67.08
2022-12-05T18:20:17.498Z,57.45
2022-12-05T18:22:50.011Z,61.50
2022-12-05T18:25:24.628Z,66.82
2022-12-05T18:27:56.960Z,63.52
2022-12-05T18:30:31.640Z,64.25
2022-12-05T18:33:05.569Z,67.25
2022-12-05T18:35:41.036Z,64.85
2022-12-05T18:38:15.228Z,64.85
2022-12-05T18:40:46.670Z,64.22
2022-12-05T18:43:18.643Z,66.57
2022-12-05T18:45:58.180Z,68.02
2022-12-05T18:48:40.810Z,66.12
2022-12-05T18:51:20.925Z,73.00
2022-12-05T18:53:58.435Z,71.07
2022-12-05T18:56:34.417Z,67.62
2022-12-05T18:59:19.176Z,69.17
2022-12-05T19:01:52.665Z,54.93
2022-12-05T19:04:25.503Z,68.80
2022-12-05T19:07:00.492Z,76.00
2022-12-05T19:09:36.633Z,68.15
2022-12-05T19:12:12.548Z,66.55
2022-12-05T19:14:44.248Z,70.83
2022-12-05T19:19:59.349Z,73.47
2022-12-05T19:22:32.553Z,75.32
2022-12-05T19:25:07.159Z,73.67
2022-12-05T19:27:40.868Z,73.72
2022-12-05T19:30:15.428Z,77.17
2022-12-05T19:32:47.962Z,77.58
2022-12-05T19:35:20.393Z,75.17
2022-12-05T19:37:52.030Z,75.67
2022-12-05T19:40:24.341Z,81.70
2022-12-05T19:42:58.538Z,83.78
2022-12-05T19:45:33.229Z,81.78
2022-12-05T19:48:06.423Z,68.10
2022-12-05T19:50:40.449Z,65.07
2022-12-05T19:53:13.199Z,68.78
2022-12-05T19:55:47.945Z,63.98
2022-12-05T19:58:22.078Z,62.60
2022-12-05T20:00:55.969Z,59.40
2022-12-05T20:03:27.476Z,69.03
2022-12-05T20:06:03.520Z,71.28
2022-12-05T20:08:38.503Z,65.83
2022-12-05T20:11:13.843Z,68.02
2022-12-05T20:13:53.504Z,67.80
2022-12-05T20:16:28.431Z,65.95
2022-12-05T20:19:02.750Z,64.62
2022-12-05T20:21:35.933Z,64.77
2022-12-05T20:24:08.195Z,74.37
2022-12-05T20:26:49.304Z,78.50
2022-12-05T20:29:20.839Z,80.40
2022-12-05T20:31:54.859Z,75.30
2022-12-05T20:34:29.426Z,69.82
2022-12-05T20:37:05.119Z,66.33
2022-12-05T20:39:39.197Z,67.85
2022-12-05T20:42:11.765Z,72.27
2022-12-05T20:44:46.392Z,67.47
2022-12-05T20:47:19.479Z,77.05
2022-12-05T20:52:26.097Z,76.95
2022-12-05T20:54:58.520Z,74.12
2022-12-05T20:57:30.816Z,78.97
2022-12-05T21:00:04.597Z,77.17
2022-12-05T21:02:36.088Z,93.03
2022-12-05T21:05:10.680Z,90.47
2022-12-05T21:07:46.847Z,85.90
2022-12-05T21:10:17.728Z,82.20
2022-12-05T21:12:52.956Z,78.45
2022-12-05T21:15:25.132Z,83.05
2022-12-05T21:18:15.138Z,79.53
2022-12-05T21:20:59.101Z,78.95
2022-12-05T21:23:32.954Z,74.35
2022-12-05T21:26:11.216Z,75.78
2022-12-05T21:28:44.997Z,71.62
2022-12-05T21:31:20.506Z,84.93
2022-12-05T21:36:30.860Z,76.17
2022-12-05T21:39:03.784Z,80.50
2022-12-05T21:41:38.150Z,75.03
2022-12-05T21:44:11.554Z,78.57
2022-12-05T21:46:45.646Z,73.83
2022-12-05T21:49:19.098Z,72.35
2022-12-05T21:51:55.661Z,71.62
2022-12-05T21:54:27.449Z,75.10
2022-12-05T21:57:00.342Z,79.58
2022-12-05T21:59:37.258Z,75.75
2022-12-05T22:02:28.385Z,75.55
2022-12-05T22:05:01.670Z,73.60
2022-12-05T22:07:34.348Z,71.77
2022-12-05T22:10:10.009Z,75.42
2022-12-05T22:12:41.617Z,68.42
2022-12-05T22:15:14.484Z,68.37
2022-12-05T22:17:44.913Z,74.70
2022-12-05T22:20:18.401Z,70.20
2022-12-05T22:22:51.007Z,71.30
2022-12-05T22:25:23.277Z,70.67
2022-12-05T22:27:57.659Z,78.62
2022-12-05T22:30:30.657Z,83.47
2022-12-05T22:33:05.055Z,73.00
2022-12-05T22:35:38.035Z,79.47
2022-12-05T22:38:14.922Z,74.87
2022-12-05T22:40:47.399Z,71.02
2022-12-05T22:46:13.333Z,74.30
2022-12-05T22:48:45.611Z,76.70
2022-12-05T22:51:19.122Z,73.55
2022-12-05T22:53:55.430Z,68.42
2022-12-05T22:59:04.431Z,72.62
2022-12-05T23:01:39.062Z,75.12
2022-12-05T23:07:01.910Z,82.85
2022-12-05T23:09:33.573Z,77.25
2022-12-05T23:12:06.519Z,78.67
2022-12-05T23:14:40.758Z,76.45
2022-12-05T23:17:14.545Z,73.30
2022-12-05T23:19:48.798Z,76.97
2022-12-05T23:22:20.913Z,77.62
2022-12-05T23:24:52.012Z,79.05
2022-12-05T23:27:26.235Z,80.95
2022-12-05T23:29:59.524Z,75.67
2022-12-05T23:32:34.366Z,77.55
2022-12-05T23:35:09.376Z,75.67
2022-12-05T23:37:39.532Z,79.42
2022-12-05T23:40:10.418Z,77.25
2022-12-05T23:42:41.617Z,75.08
2022-12-05T23:45:12.347Z,78.72
2022-12-05T23:47:43.425Z,82.75
2022-12-05T23:50:13.674Z,72.25
2022-12-05T23:52:43.834Z,80.38
2022-12-05T23:55:14.018Z,78.25
2022-12-05T23:57:44.163Z,88.50
